Time;durP1;ratioP1;P1;durP2;ratioP2;P2;SDS_P1;SDS_P2;PMS_P1;PMS_P2;Temp;Humidity;BMP_temperature;BMP_pressure;BME280_temperature;BME280_humidity;BME280_pressure;Samples;Min_cycle;Max_cycle;Signal;HPM_P1;HPM_P2
2023/02/15 00:00:28;;;;;;;29.55;17.15;;;6.90;99.90;;;;;;4208001;28;20044;-66
2023/02/15 00:02:29;;;;;;;32.45;18.70;;;6.80;99.90;;;;;;4207916;28;20510;-66
2023/02/15 00:04:45;;;;;;;30.25;17.45;;;6.90;99.90;;;;;;4211611;28;20036;-65
2023/02/15 00:06:46;;;;;;;29.42;16.42;;;6.80;99.90;;;;;;4212175;28;20044;-65
2023/02/15 00:08:47;;;;;;;27.52;15.18;;;6.90;99.90;;;;;;4213039;28;20498;-65
2023/02/15 00:10:48;;;;;;;28.23;16.83;;;6.90;99.90;;;;;;4211045;28;20028;-65
2023/02/15 00:12:48;;;;;;;29.08;16.52;;;6.80;99.90;;;;;;4197520;28;20438;-65
2023/02/15 00:14:49;;;;;;;27.75;16.30;;;6.80;99.90;;;;;;4202497;28;20037;-65
2023/02/15 00:16:52;;;;;;;26.73;16.02;;;6.80;99.90;;;;;;4205179;28;20021;-65
2023/02/15 00:18:52;;;;;;;;;;;6.80;99.90;;;;;;4206284;28;20040;-65
2023/02/15 00:20:53;;;;;;;32.90;18.75;;;6.80;99.90;;;;;;4200397;28;20651;-65
2023/02/15 00:22:54;;;;;;;31.75;18.13;;;6.80;99.90;;;;;;4197011;28;20090;-65
2023/02/15 00:24:55;;;;;;;32.20;18.58;;;6.80;99.90;;;;;;4210161;28;20024;-65
2023/02/15 00:26:55;;;;;;;34.80;19.52;;;6.60;99.90;;;;;;4211855;28;20383;-65
2023/02/15 00:28:58;;;;;;;30.05;16.58;;;6.70;99.90;;;;;;4218153;28;20024;-66
2023/02/15 00:31:12;;;;;;;29.17;17.20;;;6.60;99.90;;;;;;4193563;28;20066;-66
2023/02/15 00:33:12;;;;;;;29.17;17.60;;;6.70;99.90;;;;;;4219930;28;20048;-65
2023/02/15 00:35:13;;;;;;;32.38;18.10;;;6.60;99.90;;;;;;4212287;28;20043;-65
2023/02/15 00:37:13;;;;;;;31.00;17.65;;;6.60;99.90;;;;;;4220988;28;20390;-66
2023/02/15 00:39:15;;;;;;;31.73;18.70;;;6.60;99.90;;;;;;4214129;28;20031;-65
2023/02/15 00:41:16;;;;;;;33.28;17.75;;;6.60;99.90;;;;;;4213861;28;20028;-65
2023/02/15 00:43:17;;;;;;;33.72;18.92;;;6.50;99.90;;;;;;4220967;28;20024;-65
2023/02/15 00:45:17;;;;;;;36.42;18.45;;;6.60;99.90;;;;;;4219692;28;20375;-65
2023/02/15 00:47:18;;;;;;;30.98;18.38;;;6.50;99.90;;;;;;4218594;28;20484;-65
2023/02/15 00:49:18;;;;;;;31.95;18.80;;;6.50;99.90;;;;;;4218777;28;20156;-65
2023/02/15 00:51:20;;;;;;;31.35;18.48;;;6.50;99.90;;;;;;4214139;28;20499;-65
2023/02/15 00:53:21;;;;;;;31.98;17.83;;;6.50;99.90;;;;;;4195103;28;20036;-65
2023/02/15 00:55:21;;;;;;;29.70;17.15;;;6.50;99.90;;;;;;4214954;28;20395;-66
2023/02/15 00:57:22;;;;;;;35.72;20.38;;;6.40;99.90;;;;;;4211008;28;20032;-65
2023/02/15 00:59:22;;;;;;;34.28;19.00;;;6.40;99.90;;;;;;4222349;28;20036;-65
2023/02/15 01:01:23;;;;;;;31.88;17.98;;;6.40;99.90;;;;;;4210436;28;20479;-65
2023/02/15 01:03:24;;;;;;;34.30;19.75;;;6.40;99.90;;;;;;4211769;28;20124;-65
2023/02/15 01:05:24;;;;;;;32.17;18.00;;;6.40;99.90;;;;;;4209576;28;20329;-65
2023/02/15 01:07:25;;;;;;;31.58;18.02;;;6.40;99.90;;;;;;4200404;28;20469;-65
2023/02/15 01:09:25;;;;;;;34.45;19.17;;;6.40;99.90;;;;;;4217893;28;20031;-65
2023/02/15 01:11:26;;;;;;;34.92;19.58;;;6.30;99.90;;;;;;4207889;28;20029;-65
2023/02/15 01:13:27;;;;;;;34.17;19.13;;;6.40;99.90;;;;;;4217848;28;20024;-65
2023/02/15 01:15:27;;;;;;;29.73;17.75;;;6.40;99.90;;;;;;4198392;28;20418;-65
2023/02/15 01:17:28;;;;;;;35.95;19.70;;;6.40;99.90;;;;;;4214598;28;20058;-65
2023/02/15 01:19:29;;;;;;;32.10;18.85;;;6.40;99.90;;;;;;4219156;28;20034;-65
2023/02/15 01:21:29;;;;;;;36.30;20.00;;;6.30;99.90;;;;;;4210676;28;20475;-65
2023/02/15 01:23:30;;;;;;;31.65;18.17;;;6.30;99.90;;;;;;4221684;28;20630;-65
2023/02/15 01:25:30;;;;;;;31.25;18.55;;;6.20;99.90;;;;;;4212767;28;20032;-65
2023/02/15 01:27:31;;;;;;;36.50;19.80;;;6.30;99.90;;;;;;4219627;28;20044;-65
2023/02/15 01:29:31;;;;;;;34.15;19.92;;;6.20;99.90;;;;;;4211324;28;20028;-65
2023/02/15 01:31:32;;;;;;;31.38;19.02;;;6.20;99.90;;;;;;4211708;28;20043;-65
2023/02/15 01:33:33;;;;;;;38.15;21.45;;;6.20;99.90;;;;;;4215760;28;20474;-65
2023/02/15 01:35:36;;;;;;;38.85;22.13;;;6.20;99.90;;;;;;4208950;28;20090;-66
2023/02/15 01:37:36;;;;;;;;;;;6.20;99.90;;;;;;4213374;28;20471;-65
2023/02/15 01:39:37;;;;;;;32.47;19.00;;;6.10;99.90;;;;;;4218594;28;19918;-65
2023/02/15 01:41:37;;;;;;;33.33;18.90;;;6.10;99.90;;;;;;4212085;28;20446;-65
2023/02/15 01:43:43;;;;;;;35.47;19.80;;;6.20;99.90;;;;;;4216200;28;20035;-65
2023/02/15 01:45:49;;;;;;;36.28;21.63;;;6.20;99.90;;;;;;4219853;28;20027;-65
2023/02/15 01:48:01;;;;;;;40.90;22.73;;;6.10;99.90;;;;;;4218416;28;20490;-65
2023/02/15 01:50:11;;;;;;;;;;;6.00;99.90;;;;;;4207684;28;20116;-67
2023/02/15 01:52:15;;;;;;;36.25;20.50;;;6.00;99.90;;;;;;4213949;28;19973;-65
2023/02/15 01:54:24;;;;;;;32.95;19.70;;;6.00;99.90;;;;;;4216652;28;20031;-65
2023/02/15 01:56:29;;;;;;;39.50;21.98;;;6.00;99.90;;;;;;4210360;28;22290;-65
2023/02/15 01:58:31;;;;;;;35.38;19.80;;;6.00;99.90;;;;;;4209384;28;20054;-65
2023/02/15 02:00:34;;;;;;;35.67;19.98;;;5.90;99.90;;;;;;4205945;28;20024;-65
2023/02/15 02:02:35;;;;;;;38.45;22.48;;;5.90;99.90;;;;;;4207018;28;20036;-66
2023/02/15 02:04:43;;;;;;;38.08;21.38;;;5.90;99.90;;;;;;4205738;28;20107;-66
2023/02/15 02:06:47;;;;;;;36.80;21.02;;;5.90;99.90;;;;;;4205483;28;20028;-65
2023/02/15 02:08:48;;;;;;;37.15;21.48;;;5.80;99.90;;;;;;4206620;28;20032;-65
2023/02/15 02:10:49;;;;;;;39.28;21.98;;;5.80;99.90;;;;;;4207607;28;20096;-65
2023/02/15 02:12:54;;;;;;;35.67;20.02;;;5.80;99.90;;;;;;4205367;28;20558;-65
2023/02/15 02:14:55;;;;;;;34.78;19.65;;;5.80;99.90;;;;;;4209520;28;20092;-65
2023/02/15 02:16:56;;;;;;;37.93;21.03;;;5.80;99.90;;;;;;4209938;28;20040;-65
2023/02/15 02:19:03;;;;;;;37.53;20.65;;;5.70;99.90;;;;;;4207588;28;20024;-65
2023/02/15 02:21:47;;;;;;;37.90;21.73;;;5.70;99.90;;;;;;4210156;28;20110;-65
2023/02/15 02:24:28;;;;;;;34.95;19.95;;;5.70;99.90;;;;;;4187014;28;20078;-65
2023/02/15 02:27:07;;;;;;;35.10;20.05;;;5.70;99.90;;;;;;4204058;28;20042;-65
2023/02/15 02:29:47;;;;;;;39.33;21.88;;;5.70;99.90;;;;;;4209794;28;20034;-65
2023/02/15 02:31:58;;;;;;;39.13;21.55;;;5.70;99.90;;;;;;4203608;28;20146;-65
2023/02/15 02:34:17;;;;;;;37.97;21.75;;;5.60;99.90;;;;;;4213735;28;20043;-65
2023/02/15 02:36:54;;;;;;;38.72;21.88;;;5.60;99.90;;;;;;4204733;28;20411;-65
2023/02/15 02:39:12;;;;;;;37.08;21.25;;;5.60;99.90;;;;;;4201798;28;20036;-65
2023/02/15 02:41:30;;;;;;;39.45;21.60;;;5.60;99.90;;;;;;4202599;28;20036;-65
2023/02/15 02:43:44;;;;;;;40.78;21.38;;;5.50;99.90;;;;;;4206138;28;20028;-65
2023/02/15 02:45:56;;;;;;;39.75;22.33;;;5.50;99.90;;;;;;4203395;28;20043;-65
2023/02/15 02:48:05;;;;;;;38.15;21.70;;;5.50;99.90;;;;;;4206758;28;20052;-65
2023/02/15 02:50:09;;;;;;;36.10;20.65;;;5.50;99.90;;;;;;4205964;28;20036;-65
2023/02/15 02:52:31;;;;;;;36.97;21.75;;;5.50;99.90;;;;;;4199458;28;20032;-65
2023/02/15 02:54:34;;;;;;;39.75;22.30;;;5.50;99.90;;;;;;4206226;28;20020;-65
2023/02/15 02:56:48;;;;;;;41.97;22.40;;;5.50;99.90;;;;;;4205623;28;20158;-65
2023/02/15 02:58:56;;;;;;;40.85;21.80;;;5.40;99.90;;;;;;4204339;28;20475;-65
2023/02/15 03:01:21;;;;;;;37.95;22.15;;;5.40;99.90;;;;;;4203670;28;20387;-65
2023/02/15 03:03:27;;;;;;;38.00;21.77;;;5.40;99.90;;;;;;4203048;28;20033;-65
2023/02/15 03:05:30;;;;;;;36.35;20.95;;;5.40;99.90;;;;;;4197358;28;20588;-65
2023/02/15 03:07:32;;;;;;;39.58;21.25;;;5.40;99.90;;;;;;4206209;28;20042;-65
2023/02/15 03:09:48;;;;;;;38.22;21.77;;;5.40;99.90;;;;;;4201380;28;20194;-65
2023/02/15 03:11:49;;;;;;;39.13;22.17;;;5.40;99.90;;;;;;4202716;28;20044;-65
2023/02/15 03:13:50;;;;;;;36.78;21.48;;;5.40;99.90;;;;;;4202881;28;20440;-65
2023/02/15 03:18:11;;;;;;;33.72;20.10;;;5.40;99.90;;;;;;4186112;28;20140;-64
2023/02/15 03:20:25;;;;;;;37.90;21.15;;;5.40;99.90;;;;;;4189959;28;20040;-65
2023/02/15 03:22:35;;;;;;;39.92;22.73;;;5.40;99.90;;;;;;4190999;28;20111;-65
2023/02/15 03:24:41;;;;;;;39.72;22.20;;;5.40;99.90;;;;;;4185280;28;20510;-65
2023/02/15 03:26:46;;;;;;;35.67;21.05;;;5.40;99.90;;;;;;4186829;28;20429;-65
2023/02/15 03:28:51;;;;;;;36.85;20.63;;;5.40;99.90;;;;;;4192539;28;20442;-64
2023/02/15 03:30:54;;;;;;;39.67;21.25;;;5.40;99.90;;;;;;4190584;28;20043;-65
2023/02/15 03:32:58;;;;;;;39.65;21.63;;;5.40;99.90;;;;;;4191825;28;20552;-65
2023/02/15 03:34:59;;;;;;;40.35;22.73;;;5.40;99.90;;;;;;4192451;28;20096;-65
2023/02/15 03:37:21;;;;;;;39.42;21.90;;;5.40;99.90;;;;;;4188313;28;20032;-65
2023/02/15 03:39:36;;;;;;;37.00;20.98;;;5.40;99.90;;;;;;4186205;28;20087;-65
2023/02/15 03:41:41;;;;;;;38.03;21.77;;;5.40;99.90;;;;;;4193399;28;20036;-65
2023/02/15 03:43:49;;;;;;;42.08;22.05;;;5.40;99.90;;;;;;4191680;28;20535;-65
2023/02/15 03:46:02;;;;;;;39.92;22.00;;;5.40;99.90;;;;;;4195364;28;20105;-65
2023/02/15 03:48:05;;;;;;;36.17;19.83;;;5.30;99.90;;;;;;4205945;28;20090;-65
2023/02/15 03:52:38;;;;;;;38.80;22.08;;;5.40;99.90;;;;;;4207903;28;20032;-65
2023/02/15 03:54:43;;;;;;;35.47;20.27;;;5.30;99.90;;;;;;4210774;28;20104;-64
2023/02/15 04:01:56;;;;;;;35.15;20.42;;;5.40;99.90;;;;;;4202971;28;20088;-65
2023/02/15 04:01:58;;;;;;;37.25;21.20;;;5.30;99.90;;;;;;4205136;28;20029;-65
2023/02/15 04:04:08;;;;;;;39.60;21.23;;;5.30;99.90;;;;;;4189021;28;20037;-65
2023/02/15 04:06:09;;;;;;;38.13;20.48;;;5.40;99.90;;;;;;4212082;28;20032;-65
2023/02/15 04:08:11;;;;;;;36.63;20.52;;;5.30;99.90;;;;;;4208290;28;20024;-64
2023/02/15 04:12:30;;;;;;;34.15;19.73;;;5.30;99.90;;;;;;4209186;28;20040;-65
2023/02/15 04:16:50;;;;;;;38.72;20.77;;;5.30;99.90;;;;;;4205109;28;20033;-65
2023/02/15 04:25:50;;;;;;;34.42;20.15;;;5.20;99.90;;;;;;4188200;28;20115;-65
2023/02/15 04:27:53;;;;;;;34.78;20.85;;;5.30;99.90;;;;;;4186009;28;20032;-65
2023/02/15 04:29:53;;;;;;;;;;;5.30;99.90;;;;;;4192261;28;20024;-65
2023/02/15 04:31:56;;;;;;;36.88;20.58;;;5.30;99.90;;;;;;4190411;28;19920;-65
2023/02/15 04:33:56;;;;;;;36.42;20.35;;;5.30;99.90;;;;;;4190167;28;20044;-65
2023/02/15 04:35:57;;;;;;;35.53;20.83;;;5.20;99.90;;;;;;4180585;28;20620;-65
2023/02/15 04:37:57;;;;;;;41.70;22.55;;;5.30;99.90;;;;;;4186429;28;20468;-65
2023/02/15 04:39:58;;;;;;;38.65;21.60;;;5.20;99.90;;;;;;4193026;28;20416;-65
2023/02/15 04:41:58;;;;;;;40.15;20.95;;;5.20;99.90;;;;;;4199043;28;20365;-66
2023/02/15 04:44:00;;;;;;;37.28;20.98;;;5.20;99.90;;;;;;4194314;28;20040;-65
2023/02/15 04:46:01;;;;;;;36.83;20.10;;;5.20;99.90;;;;;;4195866;28;20040;-64
2023/02/15 04:48:01;;;;;;;38.00;20.92;;;5.20;99.90;;;;;;4191655;28;21311;-64
2023/02/15 04:50:03;;;;;;;38.47;22.15;;;5.10;99.90;;;;;;4186006;28;20146;-65
2023/02/15 04:52:03;;;;;;;38.97;21.95;;;5.10;99.90;;;;;;4205351;28;20032;-65
2023/02/15 04:54:04;;;;;;;38.75;21.45;;;5.10;99.90;;;;;;4185265;28;20484;-65
2023/02/15 04:56:05;;;;;;;37.03;20.48;;;5.10;99.90;;;;;;4176920;28;20044;-65
2023/02/15 04:58:05;;;;;;;37.53;21.25;;;5.10;99.90;;;;;;4185048;28;20029;-65
2023/02/15 05:00:07;;;;;;;38.22;20.73;;;5.10;99.90;;;;;;4182870;28;20037;-65
2023/02/15 05:02:08;;;;;;;44.90;23.85;;;5.10;99.90;;;;;;4181811;28;20036;-65
2023/02/15 05:04:09;;;;;;;38.97;21.08;;;5.00;99.90;;;;;;4184253;28;20036;-65
2023/02/15 05:06:09;;;;;;;38.50;21.63;;;5.00;99.90;;;;;;4193814;28;20031;-65
2023/02/15 05:08:10;;;;;;;37.33;20.95;;;5.00;99.90;;;;;;4189770;28;20592;-65
2023/02/15 05:10:10;;;;;;;36.72;20.65;;;5.00;99.90;;;;;;4189292;28;20099;-66
2023/02/15 05:12:11;;;;;;;37.33;19.70;;;4.90;99.90;;;;;;4188381;28;20044;-65
2023/02/15 05:14:12;;;;;;;34.72;20.75;;;4.90;99.90;;;;;;4185515;28;20072;-65
2023/02/15 05:16:12;;;;;;;37.25;21.70;;;4.90;99.90;;;;;;4185583;28;20047;-65
2023/02/15 05:18:13;;;;;;;40.08;21.38;;;4.90;99.90;;;;;;4187587;28;20029;-65
2023/02/15 05:20:14;;;;;;;34.75;19.83;;;4.80;99.90;;;;;;4182055;28;20822;-65
2023/02/15 05:22:14;;;;;;;37.20;20.63;;;4.80;99.90;;;;;;4186268;28;20430;-65
2023/02/15 05:28:54;;;;;;;35.63;19.45;;;4.70;99.90;;;;;;4203851;28;20035;-64
2023/02/15 05:31:06;;;;;;;38.72;20.83;;;4.70;99.90;;;;;;4204009;28;20082;-65
2023/02/15 05:33:07;;;;;;;36.55;20.77;;;4.70;99.90;;;;;;4205388;28;20035;-64
2023/02/15 05:35:13;;;;;;;33.97;20.10;;;4.70;99.90;;;;;;4203584;28;20029;-65
2023/02/15 05:37:13;;;;;;;36.70;20.90;;;4.60;99.90;;;;;;4205412;28;20129;-65
2023/02/15 05:39:14;;;;;;;34.97;19.75;;;4.70;99.90;;;;;;4207071;28;20067;-65
2023/02/15 05:41:15;;;;;;;39.00;21.55;;;4.70;99.90;;;;;;4207013;28;20054;-64
2023/02/15 05:43:15;;;;;;;39.60;21.75;;;4.70;99.90;;;;;;4210002;28;20045;-64
2023/02/15 05:45:16;;;;;;;37.25;19.60;;;4.60;99.90;;;;;;4208041;28;20036;-65
2023/02/15 05:47:16;;;;;;;38.42;20.77;;;4.70;99.90;;;;;;4207899;28;20070;-64
2023/02/15 05:49:17;;;;;;;36.78;20.33;;;4.60;99.90;;;;;;4203246;28;20769;-65
2023/02/15 05:51:17;;;;;;;36.17;19.20;;;4.70;99.90;;;;;;4205808;28;20093;-65
2023/02/15 05:53:18;;;;;;;34.97;19.92;;;4.70;99.90;;;;;;4208950;28;20032;-65
2023/02/15 05:55:19;;;;;;;38.25;20.00;;;4.60;99.90;;;;;;4203115;28;20040;-65
2023/02/15 05:57:20;;;;;;;35.72;20.40;;;4.70;99.90;;;;;;4203693;28;20088;-65
2023/02/15 05:59:20;;;;;;;37.88;21.02;;;4.70;99.90;;;;;;4206281;28;20111;-65
2023/02/15 06:01:22;;;;;;;37.35;20.25;;;4.70;99.90;;;;;;4203122;28;20474;-65
2023/02/15 06:03:25;;;;;;;35.10;20.42;;;4.70;99.90;;;;;;4197658;28;20081;-65
2023/02/15 06:05:26;;;;;;;39.38;21.27;;;4.60;99.90;;;;;;4210611;28;20044;-65
2023/02/15 06:07:26;;;;;;;35.65;20.15;;;4.60;99.90;;;;;;4208018;28;20037;-64
2023/02/15 06:09:27;;;;;;;35.22;18.13;;;4.60;99.90;;;;;;4207966;28;20031;-65
2023/02/15 06:11:28;;;;;;;34.05;19.58;;;4.60;99.90;;;;;;4205618;28;20044;-65
2023/02/15 06:13:28;;;;;;;39.65;20.23;;;4.60;99.90;;;;;;4206086;28;20169;-65
2023/02/15 06:15:29;;;;;;;33.15;19.70;;;4.60;99.90;;;;;;4210281;28;20047;-65
2023/02/15 06:17:29;;;;;;;36.90;20.63;;;4.60;99.90;;;;;;4208360;28;20103;-65
2023/02/15 06:19:30;;;;;;;39.83;21.55;;;4.60;99.90;;;;;;4205385;28;20091;-65
2023/02/15 06:21:31;;;;;;;34.15;19.00;;;4.60;99.90;;;;;;4200017;28;20390;-65
2023/02/15 06:23:31;;;;;;;35.55;20.45;;;4.60;99.90;;;;;;4200096;28;20032;-65
2023/02/15 06:25:32;;;;;;;36.00;19.05;;;4.50;99.90;;;;;;4208416;28;20431;-65
2023/02/15 06:27:32;;;;;;;36.50;19.77;;;4.50;99.90;;;;;;4204599;28;20043;-65
2023/02/15 06:29:33;;;;;;;39.80;20.30;;;4.50;99.90;;;;;;4208910;28;20507;-64
2023/02/15 06:31:33;;;;;;;35.53;19.70;;;4.50;99.90;;;;;;4201501;28;20066;-64
2023/02/15 06:33:34;;;;;;;33.97;19.08;;;4.60;99.90;;;;;;4207836;28;20044;-65
2023/02/15 06:35:35;;;;;;;36.63;19.50;;;4.60;99.90;;;;;;4208125;28;20107;-65
2023/02/15 06:37:35;;;;;;;36.13;19.17;;;4.50;99.90;;;;;;4204992;28;20032;-65
2023/02/15 06:39:36;;;;;;;35.85;18.50;;;4.60;99.90;;;;;;4208523;28;20105;-65
2023/02/15 06:41:36;;;;;;;39.80;21.67;;;4.60;99.90;;;;;;4207232;28;20560;-65
2023/02/15 06:43:37;;;;;;;34.67;19.73;;;4.50;99.90;;;;;;4199320;28;20558;-67
2023/02/15 06:45:37;;;;;;;40.95;21.40;;;4.50;99.90;;;;;;4205823;28;20036;-67
2023/02/15 06:47:38;;;;;;;35.63;20.13;;;4.50;99.90;;;;;;4205346;28;20104;-67
2023/02/15 06:49:39;;;;;;;45.97;25.98;;;4.40;99.90;;;;;;4202470;28;20040;-67
2023/02/15 06:51:39;;;;;;;39.95;22.15;;;4.50;99.90;;;;;;4204870;28;20040;-66
2023/02/15 06:53:42;;;;;;;36.10;19.90;;;4.50;99.90;;;;;;4208295;28;20107;-65
2023/02/15 06:55:43;;;;;;;36.22;20.25;;;4.40;99.90;;;;;;4201337;28;20089;-65
2023/02/15 06:57:43;;;;;;;40.00;21.23;;;4.40;99.90;;;;;;4208402;28;20044;-65
2023/02/15 06:59:44;;;;;;;39.80;22.23;;;4.40;99.90;;;;;;4209990;28;20025;-65
2023/02/15 07:01:44;;;;;;;40.45;21.63;;;4.30;99.90;;;;;;4204653;28;20036;-65
2023/02/15 07:03:45;;;;;;;36.75;20.95;;;4.30;99.90;;;;;;4204965;28;20136;-65
2023/02/15 07:05:47;;;;;;;38.08;21.50;;;4.30;99.90;;;;;;4207547;28;20024;-65
2023/02/15 07:07:48;;;;;;;39.55;21.85;;;4.20;99.90;;;;;;4207884;28;20505;-65
2023/02/15 07:09:48;;;;;;;39.70;21.80;;;4.20;99.90;;;;;;4209638;28;20036;-65
2023/02/15 07:14:08;;;;;;;36.28;20.42;;;4.20;99.90;;;;;;4204514;28;20912;-65
2023/02/15 07:16:09;;;;;;;38.80;20.65;;;4.20;99.90;;;;;;4204479;28;20038;-65
2023/02/15 07:18:10;;;;;;;41.03;20.92;;;4.20;99.90;;;;;;4207662;28;20032;-66
2023/02/15 07:20:14;;;;;;;41.95;21.67;;;4.20;99.90;;;;;;4208534;28;20040;-66
2023/02/15 07:22:14;;;;;;;37.35;20.80;;;4.20;99.90;;;;;;4207553;28;20142;-65
2023/02/15 07:24:15;;;;;;;42.22;21.85;;;4.30;99.90;;;;;;4209522;28;20490;-65
2023/02/15 07:26:15;;;;;;;37.35;20.73;;;4.20;99.90;;;;;;4209046;28;20051;-65
2023/02/15 07:28:16;;;;;;;33.97;19.60;;;4.20;99.90;;;;;;4207968;28;20072;-65
2023/02/15 07:30:17;;;;;;;34.83;19.52;;;4.20;99.90;;;;;;4206107;28;20131;-65
2023/02/15 07:32:17;;;;;;;36.60;19.88;;;4.20;99.90;;;;;;4207399;28;20032;-65
2023/02/15 07:34:18;;;;;;;41.42;22.17;;;4.30;99.90;;;;;;4209887;28;20036;-65
2023/02/15 07:36:19;;;;;;;39.97;20.42;;;4.30;99.90;;;;;;4206599;28;20514;-65
2023/02/15 07:38:20;;;;;;;41.08;22.15;;;4.30;99.90;;;;;;4209689;28;20132;-65
2023/02/15 07:40:23;;;;;;;37.55;20.38;;;4.30;99.90;;;;;;4207268;28;20039;-65
2023/02/15 07:42:23;;;;;;;36.72;20.42;;;4.30;99.90;;;;;;4207091;28;20032;-65
2023/02/15 07:44:24;;;;;;;34.80;20.00;;;4.30;99.90;;;;;;4208782;28;20024;-65
2023/02/15 07:46:24;;;;;;;37.83;19.67;;;4.40;99.90;;;;;;4207022;28;20040;-66
2023/02/15 07:48:25;;;;;;;40.30;22.08;;;4.40;99.90;;;;;;4209420;28;20036;-65
2023/02/15 07:50:26;;;;;;;35.17;20.13;;;4.40;99.90;;;;;;4205148;28;20107;-65
2023/02/15 07:52:27;;;;;;;37.83;20.30;;;4.50;99.90;;;;;;4201423;28;20079;-65
2023/02/15 07:54:28;;;;;;;35.67;20.10;;;4.70;99.90;;;;;;4208904;28;20051;-65
2023/02/15 07:56:28;;;;;;;32.67;18.48;;;4.90;99.90;;;;;;4201789;28;20028;-65
2023/02/15 08:00:57;;;;;;;35.70;18.23;;;5.40;99.90;;;;;;4206212;28;20036;-66
2023/02/15 08:03:13;;;;;;;34.20;18.90;;;5.70;99.90;;;;;;4202267;28;20028;-66
2023/02/15 08:05:14;;;;;;;32.28;18.73;;;6.00;99.90;;;;;;4204200;28;20040;-66
2023/02/15 08:07:14;;;;;;;31.63;18.00;;;6.30;99.90;;;;;;4203687;28;20040;-66
2023/02/15 08:09:15;;;;;;;32.38;18.38;;;6.50;99.90;;;;;;4207726;28;20036;-66
2023/02/15 08:11:33;;;;;;;30.42;17.90;;;6.60;99.90;;;;;;4205979;28;20035;-66
2023/02/15 08:13:33;;;;;;;26.95;16.60;;;6.80;99.90;;;;;;4207024;28;20021;-66
2023/02/15 08:15:34;;;;;;;27.67;16.77;;;7.00;99.90;;;;;;4204955;28;20032;-66
2023/02/15 08:17:36;;;;;;;31.88;17.98;;;7.20;99.90;;;;;;4200911;28;20025;-66
2023/02/15 08:19:37;;;;;;;;;;;7.50;99.90;;;;;;4203134;28;20379;-66
2023/02/15 08:21:41;;;;;;;27.65;17.20;;;7.80;99.90;;;;;;4203108;28;19913;-66
2023/02/15 08:23:41;;;;;;;25.30;15.80;;;7.90;99.90;;;;;;4205854;28;20056;-67
2023/02/15 08:25:42;;;;;;;26.85;15.65;;;8.20;99.90;;;;;;4206491;28;20054;-67
2023/02/15 08:27:42;;;;;;;29.65;17.23;;;8.40;99.90;;;;;;4210143;28;20036;-66
2023/02/15 08:29:43;;;;;;;26.63;16.63;;;8.50;99.90;;;;;;4205732;28;20032;-66
2023/02/15 08:31:44;;;;;;;26.02;16.23;;;8.70;99.90;;;;;;4207741;28;20689;-67
2023/02/15 08:33:47;;;;;;;26.52;16.42;;;8.90;99.90;;;;;;4211849;28;20028;-67
2023/02/15 08:35:47;;;;;;;30.40;16.25;;;9.20;99.90;;;;;;4204634;28;20493;-67
2023/02/15 08:37:48;;;;;;;26.52;16.55;;;9.20;99.90;;;;;;4211591;27;20076;-67
2023/02/15 08:39:49;;;;;;;24.70;15.23;;;9.50;99.90;;;;;;4216098;27;20035;-66
2023/02/15 08:41:50;;;;;;;26.75;16.10;;;9.70;99.90;;;;;;4210805;28;20071;-67
2023/02/15 08:43:56;;;;;;;24.65;15.90;;;9.90;99.90;;;;;;4210203;28;20047;-67
2023/02/15 08:45:56;;;;;;;27.13;16.70;;;10.00;99.90;;;;;;4210898;27;20383;-67
2023/02/15 08:47:57;;;;;;;23.08;15.30;;;10.10;99.90;;;;;;4208317;27;20039;-66
2023/02/15 08:49:57;;;;;;;25.08;14.30;;;10.40;99.90;;;;;;4212670;28;20040;-67
2023/02/15 08:51:59;;;;;;;22.60;15.13;;;10.50;99.90;;;;;;4206071;27;20048;-67
2023/02/15 08:54:03;;;;;;;25.77;14.98;;;10.70;99.90;;;;;;4209223;28;20039;-67
2023/02/15 08:56:04;;;;;;;27.75;16.05;;;10.90;99.90;;;;;;4206080;28;20039;-67
2023/02/15 08:58:04;;;;;;;23.52;15.88;;;11.00;99.90;;;;;;4211537;28;20056;-67
2023/02/15 09:00:06;;;;;;;23.75;15.20;;;10.90;99.90;;;;;;4206649;28;20032;-68
2023/02/15 09:02:09;;;;;;;24.85;15.45;;;10.90;99.90;;;;;;4208048;28;20030;-67
2023/02/15 09:04:12;;;;;;;22.95;14.73;;;10.80;99.90;;;;;;4199813;28;20413;-67
2023/02/15 09:06:13;;;;;;;;;;;10.90;99.90;;;;;;4190062;28;20070;-67
2023/02/15 09:08:14;;;;;;;21.23;14.00;;;10.90;99.90;;;;;;4194295;28;19909;-68
2023/02/15 09:10:14;;;;;;;22.55;13.98;;;10.90;99.90;;;;;;4195794;28;20373;-67
2023/02/15 09:12:15;;;;;;;24.90;14.75;;;10.90;99.90;;;;;;4192971;28;20078;-68
2023/02/15 09:14:19;;;;;;;20.80;13.38;;;11.10;99.90;;;;;;4195789;28;20043;-67
2023/02/15 09:16:21;;;;;;;23.20;14.55;;;11.00;99.90;;;;;;4199061;28;20044;-67
2023/02/15 09:18:22;;;;;;;23.42;14.40;;;10.90;99.90;;;;;;4192837;28;20051;-67
2023/02/15 09:20:23;;;;;;;22.58;14.35;;;10.90;99.90;;;;;;4191637;28;20056;-67
2023/02/15 09:22:24;;;;;;;21.70;14.02;;;10.90;99.90;;;;;;4200492;28;20032;-67
2023/02/15 09:24:24;;;;;;;23.75;14.82;;;10.80;99.90;;;;;;4200052;28;20043;-68
2023/02/15 09:26:28;;;;;;;22.77;14.90;;;10.70;99.90;;;;;;4193292;28;20120;-68
2023/02/15 09:28:28;;;;;;;25.67;15.90;;;10.80;99.90;;;;;;4202432;28;20056;-67
2023/02/15 09:30:29;;;;;;;25.10;15.98;;;10.60;99.90;;;;;;4194594;28;20029;-68
2023/02/15 09:32:29;;;;;;;24.00;15.32;;;10.40;99.90;;;;;;4202506;28;20036;-68
2023/02/15 09:34:30;;;;;;;24.77;15.82;;;10.40;99.90;;;;;;4208671;28;20057;-68
2023/02/15 09:36:36;;;;;;;23.88;15.48;;;10.40;99.90;;;;;;4204617;28;20043;-67
2023/02/15 09:38:36;;;;;;;24.40;15.63;;;10.50;99.90;;;;;;4186359;28;20506;-67
2023/02/15 09:40:46;;;;;;;24.40;15.57;;;10.40;99.90;;;;;;4189958;28;20040;-68
2023/02/15 09:43:00;;;;;;;25.40;15.48;;;10.30;99.90;;;;;;4200975;28;20035;-67
2023/02/15 09:45:12;;;;;;;27.15;15.15;;;10.40;99.90;;;;;;4208989;28;20513;-67
2023/02/15 09:47:30;;;;;;;29.37;16.20;;;10.40;99.90;;;;;;4208534;28;20036;-68
2023/02/15 09:49:31;;;;;;;25.33;16.27;;;10.30;99.90;;;;;;4205268;28;20029;-68
2023/02/15 09:51:50;;;;;;;26.13;15.45;;;10.30;99.90;;;;;;4206641;28;20044;-67
2023/02/15 09:54:08;;;;;;;26.60;16.67;;;10.30;99.90;;;;;;4205026;28;20080;-67
2023/02/15 09:56:26;;;;;;;28.60;16.25;;;10.20;99.90;;;;;;4212505;28;20075;-68
2023/02/15 09:58:51;;;;;;;23.48;14.93;;;10.20;99.90;;;;;;4208586;28;20040;-67
2023/02/15 10:01:22;;;;;;;25.73;16.73;;;10.30;99.90;;;;;;4215801;28;20032;-67
2023/02/15 10:03:41;;;;;;;29.42;16.48;;;10.20;99.90;;;;;;4190873;28;20040;-67
2023/02/15 10:05:42;;;;;;;28.52;17.08;;;10.20;99.90;;;;;;4203857;28;20036;-67
2023/02/15 10:08:11;;;;;;;25.90;15.88;;;10.10;99.90;;;;;;4202389;28;20035;-67
2023/02/15 10:10:36;;;;;;;26.40;15.38;;;10.00;99.90;;;;;;4201355;28;20029;-68
2023/02/15 10:13:14;;;;;;;28.85;17.08;;;10.10;99.90;;;;;;4206011;28;20620;-67
2023/02/15 10:15:30;;;;;;;28.98;16.38;;;10.10;99.90;;;;;;4201372;28;20479;-67
2023/02/15 10:17:50;;;;;;;25.92;16.30;;;10.10;99.90;;;;;;4194959;28;20544;-67
2023/02/15 10:20:25;;;;;;;23.30;14.93;;;10.10;99.90;;;;;;4208450;28;20036;-67
2023/02/15 10:22:41;;;;;;;24.23;14.88;;;10.20;99.90;;;;;;4206891;28;20041;-66
2023/02/15 10:25:04;;;;;;;26.90;16.63;;;10.20;99.90;;;;;;4209066;28;20028;-66
2023/02/15 10:27:12;;;;;;;26.17;15.55;;;10.20;99.90;;;;;;4204287;28;20052;-67
2023/02/15 10:29:31;;;;;;;26.05;16.02;;;10.20;99.90;;;;;;4201358;28;20044;-67
2023/02/15 10:31:52;;;;;;;28.08;16.90;;;10.30;99.90;;;;;;4205687;28;20052;-67
2023/02/15 10:33:59;;;;;;;25.73;15.27;;;10.30;99.90;;;;;;4201062;28;20040;-67
2023/02/15 10:36:07;;;;;;;26.98;15.20;;;10.30;99.90;;;;;;4202817;28;20050;-67
2023/02/15 10:38:56;;;;;;;28.10;17.13;;;10.30;99.90;;;;;;4200666;28;21214;-67
2023/02/15 10:41:18;;;;;;;27.95;16.80;;;10.40;99.90;;;;;;4206944;28;20032;-67
2023/02/15 10:43:55;;;;;;;30.20;16.85;;;10.30;99.90;;;;;;4203925;28;20032;-67
2023/02/15 10:46:06;;;;;;;27.85;16.85;;;10.40;99.90;;;;;;4206204;28;20032;-67
2023/02/15 10:48:28;;;;;;;25.50;16.08;;;10.30;99.90;;;;;;4188665;28;20533;-67
2023/02/15 10:50:48;;;;;;;28.42;16.40;;;10.40;99.90;;;;;;4194829;28;20150;-67
2023/02/15 10:53:08;;;;;;;27.25;15.65;;;10.40;99.90;;;;;;4198644;28;20063;-67
2023/02/15 10:55:43;;;;;;;28.25;15.88;;;10.40;99.90;;;;;;4212351;28;20026;-67
2023/02/15 10:57:52;;;;;;;27.48;16.73;;;10.40;99.90;;;;;;4204433;28;20025;-67
2023/02/15 11:00:28;;;;;;;27.55;15.30;;;10.40;99.90;;;;;;4204103;28;20031;-66
2023/02/15 11:02:53;;;;;;;27.90;16.25;;;10.50;99.90;;;;;;4206211;28;20024;-66
2023/02/15 11:05:15;;;;;;;24.15;15.77;;;10.60;99.90;;;;;;4204756;28;20166;-67
2023/02/15 11:07:21;;;;;;;25.63;15.95;;;10.60;99.90;;;;;;4207846;28;20062;-67
2023/02/15 11:09:27;;;;;;;26.23;16.05;;;10.70;99.90;;;;;;4211075;28;20036;-66
2023/02/15 11:11:32;;;;;;;24.65;15.15;;;10.70;99.90;;;;;;4211546;28;20032;-67